Podhale (bahama Islands) — C6TX9 — position and weather

sailwx.info

Track history (hours):
 
Tides and Currents Weather Stations Pressure Air Temp Water Temp Dewpoint Dewpoint Depression Visibility Wind Speed Wind Dir Waves Ship Positions

Podhale (bahama Islands)

Last reported at 2014-Oct-12 07:11 UTC. Time now 2014-Oct-23 08:52 UTC.
Position N 36°16' E 026°56'.
Warning: this ship's position is 11 days out of date.

Length 190 m; beam 24 m.

Type: Cargo ship. MMSI: 311831000.

Date/timePositionNaut miles runAvg speedWind from/ knotsBaromVisibWave heightAir tempDewpointWater temp
2014-Oct-12 07:11N 36°16' E 026°56'2010.0
2014-Oct-12 05:12N 36°31' E 026°41'8 9.8
2014-Oct-12 04:23N 36°38' E 026°35'8 9.6
2014-Oct-12 03:32N 36°44' E 026°29'2110.2
2014-Oct-12 01:30N 37°00' E 026°13'1010.1
2014-Oct-12 00:33N 37°09' E 026°08'1010.0
2014-Oct-11 23:33N 37°18' E 026°02'10 9.7
2014-Oct-11 22:33N 37°27' E 025°57'10 9.8
2014-Oct-11 21:33N 37°36' E 025°54'15 9.9
2014-Oct-11 20:03N 37°51' E 025°51'5 9.8
2014-Oct-11 19:33N 37°56' E 025°50'217 8.0
2014-Oct-10 16:30N 40°53' E 028°33'6 6.3
2014-Oct-10 15:33N 40°54' E 028°41'6 5.4
2014-Oct-10 14:32N 40°55' E 028°48'5 5.4
2014-Oct-10 13:33N 40°57' E 028°55'2 2.0
2014-Oct-10 12:33N 40°58' E 028°57'  
Track history (hours):
 
Tides and Currents Weather Stations Pressure Air Temp Water Temp Dewpoint Dewpoint Depression Visibility Wind Speed Wind Dir Waves Ship Positions

Podhale (bahama Islands)

Last reported at 2014-Oct-12 07:11 UTC. Time now 2014-Oct-23 08:52 UTC.
Position N 36°16' E 026°56'.
Warning: this ship's position is 11 days out of date.

Length 190 m; beam 24 m.

Type: Cargo ship. MMSI: 311831000.

Date/timePositionNaut miles runAvg speedWind from/ knotsBaromVisibWave heightAir tempDewpointWater temp
2014-Oct-12 07:11N 36°16' E 026°56'2010.0
2014-Oct-12 05:12N 36°31' E 026°41'8 9.8
2014-Oct-12 04:23N 36°38' E 026°35'8 9.6
2014-Oct-12 03:32N 36°44' E 026°29'2110.2
2014-Oct-12 01:30N 37°00' E 026°13'1010.1
2014-Oct-12 00:33N 37°09' E 026°08'1010.0
2014-Oct-11 23:33N 37°18' E 026°02'10 9.7
2014-Oct-11 22:33N 37°27' E 025°57'10 9.8
2014-Oct-11 21:33N 37°36' E 025°54'15 9.9
2014-Oct-11 20:03N 37°51' E 025°51'5 9.8
2014-Oct-11 19:33N 37°56' E 025°50'217 8.0
2014-Oct-10 16:30N 40°53' E 028°33'6 6.3
2014-Oct-10 15:33N 40°54' E 028°41'6 5.4
2014-Oct-10 14:32N 40°55' E 028°48'5 5.4
2014-Oct-10 13:33N 40°57' E 028°55'2 2.0
2014-Oct-10 12:33N 40°58' E 028°57'  

Dump ship's entire track history